Terminal Aerodrome Forecast
Issued by NWS Wilmington, OH

Current Version | Previous Version | Text Only | Print | Product List | Glossary Off
Versions: 1 2 3 4 5 6 7 8 9 10 11 12 13 14 15 16 17 18 19

000
FTUS41 KILN 292357 AAA
TAFILN
TAF AMD
KILN 292357Z 3000/3024 11011G20KT 3SM -TSRA BKN045CB
      TEMPO 3000/3001 VRB15G25KT 2SM TSRA BKN030CB
     FM300100 24005KT P6SM SCT050 BKN100
     FM300500 28004KT P6SM SKC
     FM301500 33008KT P6SM SCT050
     FM302200 31005KT P6SM SKC=

USA.gov is the U.S. government's official web portal to all federal, state and local government web resources and services.